AVA5580 SKSM-SKPE
Flight info
| Callsign | AVA5580 |
|---|---|
| Flight time | 1h 8m |
| Altitude | 36000 |
| Route | MGN3C MGN UW3 MRN UW26 RNG DCT ISVON DCT MATRO MATRO1G |
| Aircraft | A320/M-SDE3FGHIRWY/LB1 |
Departure
| Time | 2026-05-06 17:20 |
|---|---|
| Airport | Simón Bolívar International Airport (SKSM) |
Arrival
| Time | 2026-05-06 18:28 |
|---|---|
| Airport | Matecaña International Airport (SKPE) |
| Time | Latitude | Longitude | Altitude | Speed | Heading |
|---|---|---|---|---|---|
| 2026-05-06 17:00 | 11.11778 | -74.23214 | 27 ft | 0 kts | 269° |
| 2026-05-06 17:11 | 11.11778 | -74.23206 | 26 ft | 2 kts | 266° |
| 2026-05-06 17:11 | 11.11779 | -74.23189 | 26 ft | 2 kts | 267° |
| 2026-05-06 17:11 | 11.11780 | -74.23172 | 26 ft | 2 kts | 250° |
| 2026-05-06 17:11 | 11.11788 | -74.23163 | 27 ft | 1 kts | 174° |
| 2026-05-06 17:12 | 11.11788 | -74.23164 | 27 ft | 0 kts | 174° |
| 2026-05-06 17:14 | 11.11788 | -74.23163 | 27 ft | 1 kts | 174° |
| 2026-05-06 17:15 | 11.11773 | -74.23162 | 26 ft | 2 kts | 174° |
| 2026-05-06 17:15 | 11.11762 | -74.23161 | 26 ft | 1 kts | 177° |
| 2026-05-06 17:15 | 11.11747 | -74.23156 | 26 ft | 4 kts | 136° |
| 2026-05-06 17:15 | 11.11745 | -74.23103 | 27 ft | 10 kts | 88° |
| 2026-05-06 17:16 | 11.11701 | -74.23053 | 26 ft | 12 kts | 172° |
| 2026-05-06 17:16 | 11.11611 | -74.23054 | 32 ft | 13 kts | 181° |
| 2026-05-06 17:16 | 11.11528 | -74.23054 | 26 ft | 11 kts | 180° |
| 2026-05-06 17:16 | 11.11461 | -74.23053 | 27 ft | 8 kts | 179° |
| 2026-05-06 17:17 | 11.11405 | -74.23052 | 27 ft | 9 kts | 179° |
| 2026-05-06 17:17 | 11.11327 | -74.23050 | 28 ft | 12 kts | 177° |
| 2026-05-06 17:17 | 11.11252 | -74.23028 | 27 ft | 10 kts | 156° |
| 2026-05-06 17:17 | 11.11226 | -74.23038 | 27 ft | 3 kts | 292° |
| 2026-05-06 17:18 | 11.11237 | -74.23045 | 27 ft | 1 kts | 334° |
| 2026-05-06 17:18 | 11.11241 | -74.23045 | 27 ft | 0 kts | 346° |
| 2026-05-06 17:18 | 11.11257 | -74.23049 | 27 ft | 6 kts | 353° |
| 2026-05-06 17:18 | 11.11269 | -74.23048 | 26 ft | 0 kts | 2° |
| 2026-05-06 17:19 | 11.11339 | -74.23048 | 28 ft | 44 kts | 359° |
| 2026-05-06 17:19 | 11.11946 | -74.23063 | 29 ft | 127 kts | 359° |
| 2026-05-06 17:19 | 11.12987 | -74.23104 | 404 ft | 157 kts | 350° |
| 2026-05-06 17:20 | 11.13934 | -74.23633 | 1228 ft | 160 kts | 308° |
| 2026-05-06 17:20 | 11.14324 | -74.24712 | 1902 ft | 172 kts | 270° |
| 2026-05-06 17:20 | 11.14065 | -74.25930 | 2337 ft | 183 kts | 254° |
| 2026-05-06 17:20 | 11.13694 | -74.27215 | 2753 ft | 195 kts | 253° |
| 2026-05-06 17:21 | 11.13294 | -74.28564 | 3143 ft | 208 kts | 253° |
| 2026-05-06 17:21 | 11.12851 | -74.30011 | 3579 ft | 221 kts | 252° |
| 2026-05-06 17:21 | 11.12360 | -74.31576 | 3979 ft | 243 kts | 252° |
| 2026-05-06 17:21 | 11.11798 | -74.33275 | 4478 ft | 261 kts | 249° |
| 2026-05-06 17:22 | 11.11016 | -74.34969 | 5277 ft | 267 kts | 239° |
| 2026-05-06 17:22 | 11.09927 | -74.36513 | 6147 ft | 270 kts | 229° |
| 2026-05-06 17:22 | 11.08590 | -74.37871 | 7037 ft | 272 kts | 221° |
| 2026-05-06 17:22 | 11.07100 | -74.39076 | 7873 ft | 275 kts | 216° |
| 2026-05-06 17:23 | 11.05487 | -74.40149 | 8679 ft | 279 kts | 211° |
| 2026-05-06 17:23 | 11.03750 | -74.41064 | 9485 ft | 282 kts | 204° |
| 2026-05-06 17:23 | 11.01896 | -74.41771 | 10235 ft | 288 kts | 198° |
| 2026-05-06 17:23 | 10.99880 | -74.42323 | 10473 ft | 313 kts | 192° |
| 2026-05-06 17:24 | 10.97652 | -74.42663 | 10758 ft | 334 kts | 185° |
| 2026-05-06 17:24 | 10.95270 | -74.42714 | 11163 ft | 347 kts | 179° |
| 2026-05-06 17:24 | 10.92876 | -74.42827 | 11856 ft | 351 kts | 186° |
| 2026-05-06 17:24 | 10.90456 | -74.43245 | 12550 ft | 354 kts | 193° |
| 2026-05-06 17:25 | 10.88049 | -74.43862 | 13188 ft | 359 kts | 194° |
| 2026-05-06 17:25 | 10.85617 | -74.44490 | 13837 ft | 362 kts | 194° |
| 2026-05-06 17:25 | 10.83160 | -74.45125 | 14483 ft | 366 kts | 194° |
| 2026-05-06 17:25 | 10.80681 | -74.45764 | 15110 ft | 369 kts | 194° |
| 2026-05-06 17:26 | 10.78175 | -74.46412 | 15722 ft | 373 kts | 194° |
| 2026-05-06 17:26 | 10.75646 | -74.47064 | 16316 ft | 376 kts | 194° |
| 2026-05-06 17:26 | 10.73100 | -74.47719 | 16894 ft | 379 kts | 194° |
| 2026-05-06 17:26 | 10.70531 | -74.48379 | 17452 ft | 382 kts | 194° |
| 2026-05-06 17:27 | 10.67939 | -74.49047 | 17996 ft | 386 kts | 194° |
| 2026-05-06 17:27 | 10.66213 | -74.49493 | 18353 ft | 388 kts | 194° |
| 2026-05-06 17:27 | 10.63586 | -74.50169 | 18874 ft | 391 kts | 194° |
| 2026-05-06 17:27 | 10.60942 | -74.50846 | 19380 ft | 394 kts | 194° |
| 2026-05-06 17:28 | 10.58277 | -74.51529 | 19886 ft | 397 kts | 194° |
| 2026-05-06 17:28 | 10.55590 | -74.52220 | 20364 ft | 399 kts | 194° |
| 2026-05-06 17:28 | 10.52888 | -74.52912 | 20843 ft | 402 kts | 194° |
| 2026-05-06 17:28 | 10.50161 | -74.53608 | 21302 ft | 405 kts | 194° |
| 2026-05-06 17:29 | 10.47422 | -74.54311 | 21748 ft | 408 kts | 194° |
| 2026-05-06 17:29 | 10.44658 | -74.55025 | 22188 ft | 411 kts | 194° |
| 2026-05-06 17:29 | 10.41878 | -74.55745 | 22614 ft | 413 kts | 194° |
| 2026-05-06 17:29 | 10.39086 | -74.56467 | 23036 ft | 416 kts | 194° |
| 2026-05-06 17:30 | 10.36304 | -74.57182 | 23432 ft | 419 kts | 194° |
| 2026-05-06 17:30 | 10.33470 | -74.57906 | 23830 ft | 421 kts | 194° |
| 2026-05-06 17:30 | 10.30622 | -74.58632 | 24213 ft | 424 kts | 194° |
| 2026-05-06 17:30 | 10.27752 | -74.59363 | 24587 ft | 426 kts | 194° |
| 2026-05-06 17:31 | 10.24869 | -74.60099 | 24954 ft | 428 kts | 194° |
| 2026-05-06 17:31 | 10.21971 | -74.60841 | 25309 ft | 431 kts | 194° |
| 2026-05-06 17:31 | 10.19054 | -74.61590 | 25655 ft | 433 kts | 194° |
| 2026-05-06 17:31 | 10.16125 | -74.62342 | 25995 ft | 436 kts | 194° |
| 2026-05-06 17:32 | 10.13175 | -74.63098 | 26335 ft | 438 kts | 194° |
| 2026-05-06 17:32 | 10.10216 | -74.63860 | 26663 ft | 440 kts | 194° |
| 2026-05-06 17:32 | 10.07241 | -74.64626 | 26991 ft | 442 kts | 194° |
| 2026-05-06 17:32 | 10.04245 | -74.65397 | 27307 ft | 445 kts | 194° |
| 2026-05-06 17:33 | 10.01241 | -74.66166 | 27614 ft | 447 kts | 194° |
| 2026-05-06 17:33 | 9.98220 | -74.66938 | 27916 ft | 449 kts | 194° |
| 2026-05-06 17:33 | 9.95178 | -74.67717 | 28200 ft | 451 kts | 194° |
| 2026-05-06 17:33 | 9.92152 | -74.68491 | 28467 ft | 453 kts | 194° |
| 2026-05-06 17:34 | 9.89077 | -74.69276 | 28738 ft | 455 kts | 194° |
| 2026-05-06 17:34 | 9.85993 | -74.70065 | 28996 ft | 457 kts | 194° |
| 2026-05-06 17:34 | 9.82906 | -74.70855 | 29258 ft | 459 kts | 194° |
| 2026-05-06 17:34 | 9.79816 | -74.71644 | 29515 ft | 460 kts | 194° |
| 2026-05-06 17:35 | 9.76688 | -74.72441 | 29779 ft | 462 kts | 194° |
| 2026-05-06 17:35 | 9.73591 | -74.73232 | 30138 ft | 460 kts | 194° |
| 2026-05-06 17:35 | 9.70493 | -74.74026 | 30494 ft | 459 kts | 194° |
| 2026-05-06 17:36 | 9.64322 | -74.75606 | 31170 ft | 458 kts | 194° |
| 2026-05-06 17:36 | 9.61236 | -74.76394 | 31495 ft | 457 kts | 194° |
| 2026-05-06 17:36 | 9.58153 | -74.77181 | 31819 ft | 456 kts | 194° |
| 2026-05-06 17:36 | 9.55079 | -74.77965 | 32140 ft | 456 kts | 194° |
| 2026-05-06 17:37 | 9.52002 | -74.78749 | 32452 ft | 455 kts | 194° |
| 2026-05-06 17:37 | 9.48931 | -74.79530 | 32760 ft | 455 kts | 194° |
| 2026-05-06 17:37 | 9.45866 | -74.80314 | 33064 ft | 454 kts | 194° |
| 2026-05-06 17:37 | 9.42805 | -74.81096 | 33361 ft | 454 kts | 194° |
| 2026-05-06 17:38 | 9.39744 | -74.81876 | 33657 ft | 453 kts | 194° |
| 2026-05-06 17:38 | 9.36688 | -74.82656 | 33969 ft | 452 kts | 194° |
| 2026-05-06 17:38 | 9.33639 | -74.83435 | 34261 ft | 452 kts | 194° |
| 2026-05-06 17:38 | 9.30593 | -74.84215 | 34554 ft | 451 kts | 194° |
| 2026-05-06 17:39 | 9.27527 | -74.84885 | 34828 ft | 451 kts | 189° |
| 2026-05-06 17:39 | 9.24425 | -74.85367 | 35086 ft | 450 kts | 189° |
| 2026-05-06 17:39 | 9.21329 | -74.85848 | 35345 ft | 450 kts | 189° |
| 2026-05-06 17:39 | 9.18232 | -74.86330 | 35598 ft | 449 kts | 189° |
| 2026-05-06 17:40 | 9.15145 | -74.86807 | 35839 ft | 449 kts | 189° |
| 2026-05-06 17:40 | 9.12054 | -74.87280 | 35981 ft | 449 kts | 189° |
| 2026-05-06 17:40 | 9.05910 | -74.88222 | 36008 ft | 449 kts | 189° |
| 2026-05-06 17:41 | 8.99728 | -74.89183 | 36007 ft | 449 kts | 189° |
| 2026-05-06 17:41 | 8.93544 | -74.90146 | 36009 ft | 449 kts | 189° |
| 2026-05-06 17:42 | 8.87365 | -74.91102 | 36012 ft | 449 kts | 189° |
| 2026-05-06 17:42 | 8.81181 | -74.92060 | 36011 ft | 450 kts | 189° |
| 2026-05-06 17:43 | 8.74995 | -74.93015 | 36013 ft | 450 kts | 189° |
| 2026-05-06 17:43 | 8.68809 | -74.93970 | 36012 ft | 450 kts | 189° |
| 2026-05-06 17:44 | 8.62627 | -74.94927 | 36012 ft | 449 kts | 189° |
| 2026-05-06 17:44 | 8.56443 | -74.95886 | 36012 ft | 449 kts | 189° |
| 2026-05-06 17:45 | 8.50269 | -74.96846 | 36014 ft | 449 kts | 189° |
| 2026-05-06 17:45 | 8.44093 | -74.97796 | 36009 ft | 449 kts | 189° |
| 2026-05-06 17:46 | 8.37918 | -74.98751 | 36007 ft | 449 kts | 189° |
| 2026-05-06 17:46 | 8.31741 | -74.99705 | 36006 ft | 449 kts | 189° |
| 2026-05-06 17:47 | 8.25553 | -75.00660 | 36007 ft | 449 kts | 189° |
| 2026-05-06 17:47 | 8.19376 | -75.01614 | 36005 ft | 449 kts | 189° |
| 2026-05-06 17:48 | 8.13235 | -75.02558 | 36005 ft | 449 kts | 189° |
| 2026-05-06 17:48 | 8.07060 | -75.03510 | 36008 ft | 449 kts | 189° |
| 2026-05-06 17:49 | 8.00878 | -75.04460 | 36007 ft | 449 kts | 189° |
| 2026-05-06 17:49 | 7.94693 | -75.05416 | 36005 ft | 449 kts | 189° |
| 2026-05-06 17:50 | 7.88510 | -75.06369 | 36004 ft | 449 kts | 189° |
| 2026-05-06 17:50 | 7.82317 | -75.07318 | 36007 ft | 450 kts | 189° |
| 2026-05-06 17:51 | 7.76128 | -75.08265 | 36010 ft | 450 kts | 189° |
| 2026-05-06 17:51 | 7.69940 | -75.09221 | 36009 ft | 450 kts | 189° |
| 2026-05-06 17:52 | 7.63750 | -75.10163 | 36010 ft | 450 kts | 189° |
| 2026-05-06 17:52 | 7.57552 | -75.11101 | 36001 ft | 451 kts | 188° |
| 2026-05-06 17:53 | 7.51345 | -75.12037 | 35999 ft | 451 kts | 188° |
| 2026-05-06 17:53 | 7.45128 | -75.12979 | 36002 ft | 452 kts | 189° |
| 2026-05-06 17:54 | 7.38904 | -75.13929 | 36006 ft | 453 kts | 189° |
| 2026-05-06 17:54 | 7.32710 | -75.14866 | 36004 ft | 453 kts | 188° |
| 2026-05-06 17:55 | 7.26463 | -75.15807 | 36002 ft | 454 kts | 188° |
| 2026-05-06 17:55 | 7.20212 | -75.16755 | 35999 ft | 455 kts | 189° |
| 2026-05-06 17:56 | 7.13949 | -75.17707 | 35996 ft | 455 kts | 188° |
| 2026-05-06 17:56 | 7.07672 | -75.18654 | 35995 ft | 457 kts | 188° |
| 2026-05-06 17:57 | 7.01379 | -75.19607 | 36001 ft | 457 kts | 189° |
| 2026-05-06 17:57 | 6.95082 | -75.20575 | 35996 ft | 458 kts | 189° |
| 2026-05-06 17:58 | 6.88771 | -75.21540 | 35996 ft | 459 kts | 189° |
| 2026-05-06 17:58 | 6.82439 | -75.22501 | 36005 ft | 459 kts | 189° |
| 2026-05-06 17:59 | 6.76117 | -75.23465 | 36005 ft | 460 kts | 189° |
| 2026-05-06 17:59 | 6.69793 | -75.24439 | 36001 ft | 460 kts | 189° |
| 2026-05-06 18:00 | 6.63454 | -75.25409 | 35996 ft | 461 kts | 189° |
| 2026-05-06 18:00 | 6.57144 | -75.26371 | 36007 ft | 462 kts | 189° |
| 2026-05-06 18:01 | 6.50795 | -75.27334 | 36020 ft | 461 kts | 189° |
| 2026-05-06 18:01 | 6.44455 | -75.28296 | 36025 ft | 460 kts | 189° |
| 2026-05-06 18:02 | 6.38123 | -75.29269 | 36004 ft | 461 kts | 189° |
| 2026-05-06 18:02 | 6.31768 | -75.30238 | 35997 ft | 462 kts | 189° |
| 2026-05-06 18:03 | 6.25397 | -75.31209 | 35937 ft | 464 kts | 189° |
| 2026-05-06 18:03 | 6.22203 | -75.31695 | 35680 ft | 464 kts | 189° |
| 2026-05-06 18:03 | 6.19023 | -75.32248 | 35429 ft | 463 kts | 194° |
| 2026-05-06 18:04 | 6.15957 | -75.33235 | 35179 ft | 463 kts | 203° |
| 2026-05-06 18:04 | 6.13035 | -75.34603 | 34603 ft | 465 kts | 206° |
| 2026-05-06 18:04 | 6.10085 | -75.36026 | 33571 ft | 472 kts | 206° |
| 2026-05-06 18:04 | 6.07109 | -75.37462 | 32555 ft | 477 kts | 206° |
| 2026-05-06 18:05 | 6.04098 | -75.38917 | 31463 ft | 483 kts | 206° |
| 2026-05-06 18:05 | 6.01063 | -75.40382 | 30447 ft | 486 kts | 206° |
| 2026-05-06 18:05 | 5.97981 | -75.41823 | 29336 ft | 491 kts | 201° |
| 2026-05-06 18:05 | 5.94775 | -75.42942 | 28748 ft | 483 kts | 199° |
| 2026-05-06 18:06 | 5.91612 | -75.44030 | 28032 ft | 478 kts | 199° |
| 2026-05-06 18:06 | 5.88491 | -75.45124 | 27333 ft | 473 kts | 199° |
| 2026-05-06 18:06 | 5.85403 | -75.46216 | 26642 ft | 468 kts | 199° |
| 2026-05-06 18:06 | 5.82353 | -75.47294 | 25965 ft | 462 kts | 199° |
| 2026-05-06 18:07 | 5.79330 | -75.48358 | 25298 ft | 457 kts | 199° |
| 2026-05-06 18:07 | 5.76381 | -75.49391 | 24649 ft | 452 kts | 199° |
| 2026-05-06 18:07 | 5.73421 | -75.50423 | 24006 ft | 447 kts | 199° |
| 2026-05-06 18:07 | 5.70497 | -75.51439 | 23383 ft | 442 kts | 199° |
| 2026-05-06 18:08 | 5.67610 | -75.52438 | 22780 ft | 436 kts | 199° |
| 2026-05-06 18:08 | 5.64758 | -75.53427 | 22211 ft | 430 kts | 199° |
| 2026-05-06 18:08 | 5.61943 | -75.54403 | 21673 ft | 425 kts | 199° |
| 2026-05-06 18:08 | 5.59167 | -75.55367 | 21163 ft | 419 kts | 199° |
| 2026-05-06 18:09 | 5.56431 | -75.56317 | 20664 ft | 413 kts | 199° |
| 2026-05-06 18:09 | 5.53735 | -75.57255 | 20173 ft | 407 kts | 199° |
| 2026-05-06 18:09 | 5.51073 | -75.58182 | 19689 ft | 401 kts | 199° |
| 2026-05-06 18:09 | 5.48453 | -75.59095 | 19211 ft | 396 kts | 199° |
| 2026-05-06 18:10 | 5.45865 | -75.59995 | 18741 ft | 391 kts | 199° |
| 2026-05-06 18:10 | 5.43300 | -75.60889 | 18253 ft | 388 kts | 199° |
| 2026-05-06 18:10 | 5.40765 | -75.61770 | 17780 ft | 384 kts | 199° |
| 2026-05-06 18:10 | 5.38252 | -75.62643 | 17287 ft | 381 kts | 199° |
| 2026-05-06 18:11 | 5.35758 | -75.63510 | 16739 ft | 380 kts | 199° |
| 2026-05-06 18:11 | 5.34100 | -75.64087 | 16328 ft | 380 kts | 199° |
| 2026-05-06 18:11 | 5.30773 | -75.65248 | 15661 ft | 377 kts | 199° |
| 2026-05-06 18:11 | 5.28306 | -75.66110 | 15156 ft | 375 kts | 199° |
| 2026-05-06 18:12 | 5.25881 | -75.66957 | 14658 ft | 373 kts | 199° |
| 2026-05-06 18:12 | 5.23456 | -75.67801 | 14429 ft | 362 kts | 199° |
| 2026-05-06 18:12 | 5.21111 | -75.68616 | 14305 ft | 350 kts | 199° |
| 2026-05-06 18:12 | 5.18851 | -75.69402 | 14175 ft | 338 kts | 199° |
| 2026-05-06 18:13 | 5.16666 | -75.70162 | 14049 ft | 328 kts | 199° |
| 2026-05-06 18:13 | 5.14544 | -75.70902 | 13922 ft | 318 kts | 199° |
| 2026-05-06 18:13 | 5.12498 | -75.71685 | 13702 ft | 312 kts | 203° |
| 2026-05-06 18:13 | 5.10521 | -75.72542 | 13633 ft | 309 kts | 204° |
| 2026-05-06 18:14 | 5.08567 | -75.73433 | 13564 ft | 308 kts | 205° |
| 2026-05-06 18:14 | 5.07278 | -75.74030 | 13522 ft | 308 kts | 205° |
| 2026-05-06 18:14 | 5.05334 | -75.74930 | 13446 ft | 308 kts | 205° |
| 2026-05-06 18:14 | 5.03387 | -75.75820 | 13383 ft | 307 kts | 205° |
| 2026-05-06 18:15 | 5.01441 | -75.76699 | 13317 ft | 307 kts | 204° |
| 2026-05-06 18:15 | 4.99497 | -75.77572 | 13249 ft | 306 kts | 204° |
| 2026-05-06 18:15 | 4.97550 | -75.78441 | 13178 ft | 306 kts | 204° |
| 2026-05-06 18:15 | 4.95605 | -75.79308 | 13110 ft | 306 kts | 204° |
| 2026-05-06 18:16 | 4.93718 | -75.80283 | 13033 ft | 305 kts | 214° |
| 2026-05-06 18:16 | 4.91979 | -75.81498 | 12974 ft | 305 kts | 215° |
| 2026-05-06 18:16 | 4.90263 | -75.82697 | 12905 ft | 295 kts | 215° |
| 2026-05-06 18:16 | 4.88602 | -75.83852 | 12838 ft | 284 kts | 215° |
| 2026-05-06 18:17 | 4.87085 | -75.85055 | 12768 ft | 273 kts | 227° |
| 2026-05-06 18:17 | 4.86027 | -75.86584 | 12695 ft | 263 kts | 245° |
| 2026-05-06 18:17 | 4.85417 | -75.88297 | 12513 ft | 259 kts | 252° |
| 2026-05-06 18:17 | 4.84867 | -75.90010 | 12311 ft | 258 kts | 252° |
| 2026-05-06 18:18 | 4.84315 | -75.91718 | 12099 ft | 256 kts | 252° |
| 2026-05-06 18:18 | 4.83765 | -75.93416 | 11874 ft | 256 kts | 252° |
| 2026-05-06 18:18 | 4.83225 | -75.95084 | 11651 ft | 255 kts | 252° |
| 2026-05-06 18:18 | 4.82671 | -75.96766 | 11423 ft | 254 kts | 248° |
| 2026-05-06 18:19 | 4.81661 | -75.98185 | 11199 ft | 252 kts | 217° |
| 2026-05-06 18:19 | 4.80070 | -75.98862 | 10961 ft | 251 kts | 185° |
| 2026-05-06 18:19 | 4.78359 | -75.98617 | 10715 ft | 251 kts | 157° |
| 2026-05-06 18:19 | 4.76748 | -75.97933 | 10470 ft | 252 kts | 157° |
| 2026-05-06 18:20 | 4.75312 | -75.96957 | 10217 ft | 250 kts | 129° |
| 2026-05-06 18:20 | 4.74619 | -75.95389 | 9979 ft | 249 kts | 94° |
| 2026-05-06 18:20 | 4.74893 | -75.93704 | 9758 ft | 248 kts | 66° |
| 2026-05-06 18:20 | 4.75553 | -75.92097 | 9538 ft | 250 kts | 70° |
| 2026-05-06 18:21 | 4.76099 | -75.90443 | 9316 ft | 249 kts | 72° |
| 2026-05-06 18:21 | 4.76600 | -75.88783 | 9094 ft | 248 kts | 73° |
| 2026-05-06 18:21 | 4.77097 | -75.87126 | 8884 ft | 248 kts | 73° |
| 2026-05-06 18:21 | 4.77451 | -75.85443 | 8690 ft | 247 kts | 87° |
| 2026-05-06 18:22 | 4.77306 | -75.83738 | 8492 ft | 246 kts | 102° |
| 2026-05-06 18:22 | 4.76985 | -75.82071 | 8293 ft | 246 kts | 101° |
| 2026-05-06 18:22 | 4.76680 | -75.80383 | 8120 ft | 245 kts | 100° |
| 2026-05-06 18:22 | 4.76385 | -75.78697 | 8023 ft | 246 kts | 100° |
| 2026-05-06 18:23 | 4.76094 | -75.77011 | 7913 ft | 245 kts | 100° |
| 2026-05-06 18:23 | 4.75802 | -75.75339 | 7877 ft | 238 kts | 100° |
| 2026-05-06 18:23 | 4.75523 | -75.73748 | 7873 ft | 226 kts | 100° |
| 2026-05-06 18:23 | 4.75255 | -75.72216 | 7877 ft | 220 kts | 100° |
| 2026-05-06 18:24 | 4.75003 | -75.70777 | 7804 ft | 199 kts | 100° |
| 2026-05-06 18:24 | 4.74773 | -75.69467 | 7665 ft | 184 kts | 100° |
| 2026-05-06 18:24 | 4.74767 | -75.68232 | 7587 ft | 175 kts | 78° |
| 2026-05-06 18:24 | 4.75202 | -75.67115 | 7373 ft | 170 kts | 58° |
| 2026-05-06 18:25 | 4.75970 | -75.66272 | 7147 ft | 162 kts | 36° |
| 2026-05-06 18:25 | 4.76939 | -75.65721 | 6974 ft | 160 kts | 25° |
| 2026-05-06 18:25 | 4.77972 | -75.65319 | 6659 ft | 158 kts | 15° |
| 2026-05-06 18:25 | 4.79034 | -75.65133 | 6451 ft | 156 kts | 2° |
| 2026-05-06 18:26 | 4.80112 | -75.65232 | 6253 ft | 156 kts | 345° |
| 2026-05-06 18:26 | 4.81097 | -75.65676 | 5903 ft | 156 kts | 324° |
| 2026-05-06 18:26 | 4.81808 | -75.66469 | 5676 ft | 153 kts | 303° |
| 2026-05-06 18:26 | 4.82304 | -75.67406 | 5549 ft | 152 kts | 291° |
| 2026-05-06 18:27 | 4.82519 | -75.68439 | 5435 ft | 152 kts | 274° |
| 2026-05-06 18:27 | 4.82502 | -75.69496 | 5257 ft | 152 kts | 264° |
| 2026-05-06 18:27 | 4.82338 | -75.70537 | 5052 ft | 152 kts | 256° |
| 2026-05-06 18:27 | 4.82056 | -75.71550 | 4817 ft | 150 kts | 252° |
| 2026-05-06 18:28 | 4.81723 | -75.72541 | 4585 ft | 150 kts | 252° |
| 2026-05-06 18:28 | 4.81401 | -75.73526 | 4437 ft | 143 kts | 251° |
| 2026-05-06 18:28 | 4.81157 | -75.74302 | 4403 ft | 65 kts | 252° |
| 2026-05-06 18:28 | 4.81064 | -75.74579 | 4371 ft | 39 kts | 251° |
| 2026-05-06 18:29 | 4.80991 | -75.74807 | 4353 ft | 20 kts | 252° |
| 2026-05-06 18:29 | 4.80949 | -75.74903 | 4351 ft | 4 kts | 316° |
| 2026-05-06 18:29 | 4.80959 | -75.74896 | 4347 ft | 3 kts | 41° |
| 2026-05-06 18:29 | 4.80985 | -75.74833 | 4356 ft | 16 kts | 71° |
| 2026-05-06 18:30 | 4.81028 | -75.74693 | 4369 ft | 23 kts | 72° |
| 2026-05-06 18:30 | 4.81071 | -75.74562 | 4373 ft | 17 kts | 70° |
| 2026-05-06 18:30 | 4.81105 | -75.74465 | 4389 ft | 12 kts | 72° |
| 2026-05-06 18:30 | 4.81126 | -75.74395 | 4395 ft | 9 kts | 73° |
| 2026-05-06 18:31 | 4.81144 | -75.74338 | 4400 ft | 11 kts | 73° |
| 2026-05-06 18:31 | 4.81182 | -75.74222 | 4408 ft | 24 kts | 71° |
| 2026-05-06 18:31 | 4.81243 | -75.74040 | 4419 ft | 24 kts | 72° |
| 2026-05-06 18:31 | 4.81301 | -75.73925 | 4423 ft | 17 kts | 43° |
| 2026-05-06 18:32 | 4.81369 | -75.73864 | 4425 ft | 0 kts | 43° |
| 2026-05-06 18:32 | 4.81393 | -75.73841 | 4425 ft | 8 kts | 44° |
| 2026-05-06 18:33 | 4.81423 | -75.73812 | 4426 ft | 4 kts | 7° |
| 2026-05-06 18:33 | 4.81446 | -75.73817 | 4426 ft | 3 kts | 344° |
| 2026-05-06 18:33 | 4.81457 | -75.73820 | 4427 ft | 1 kts | 343° |
| 2026-05-06 18:33 | 4.81466 | -75.73823 | 4426 ft | 0 kts | 342° |